Zeynep — H3UK — position and weather

sailwx.info

Track history (hours):
 
Tides and Currents Weather Stations Pressure Air Temp Water Temp Dewpoint Dewpoint Depression Visibility Wind Speed Wind Dir Waves Ship Positions

Zeynep

Last reported at 2018-Apr-25 03:56 UTC. Time now 2018-Apr-25 06:59 UTC.
Position N 60°02' E 029°25'.

Length 177 m; draft 6 m.

Type: Cargo ship. MMSI: 352854000.

Date/timePositionNaut miles runAvg speedWind from/ knotsBaromVisibWave heightAir tempDewpointWater temp
2018-Apr-25 03:56N 60°02' E 029°25'0 0.1
2018-Apr-25 03:23N 60°02' E 029°25'0 0.0
2018-Apr-25 01:56N 60°02' E 029°25'0 0.0
2018-Apr-25 01:28N 60°02' E 029°25'0 0.0
2018-Apr-24 23:11N 60°02' E 029°25'0 0.1
2018-Apr-24 22:47N 60°02' E 029°25'0 0.1
2018-Apr-24 22:28N 60°02' E 029°25'0 0.0
2018-Apr-24 21:59N 60°02' E 029°25'0 0.0
2018-Apr-24 20:46N 60°02' E 029°25'0 0.0
2018-Apr-24 01:53N 60°02' E 029°25'0 0.0
2018-Apr-24 01:23N 60°02' E 029°25'0 0.0
2018-Apr-23 19:28N 60°02' E 029°25'0 0.0
2018-Apr-23 14:59N 60°02' E 029°25'0 0.0
2018-Apr-23 12:38N 60°02' E 029°25'0 0.6
2018-Apr-23 12:26N 60°02' E 029°24'3 6.7
2018-Apr-23 11:58N 60°02' E 029°18'511.1
2018-Apr-23 11:30N 60°02' E 029°08'612.6
2018-Apr-23 11:00N 60°02' E 028°56'612.3
2018-Apr-23 10:30N 60°02' E 028°43'612.2
2018-Apr-23 10:00N 60°02' E 028°31'611.8
2018-Apr-23 09:30N 60°05' E 028°21'612.3
2018-Apr-23 09:00N 60°08' E 028°10'713.2
2018-Apr-23 08:30N 60°09' E 027°56'612.2
2018-Apr-23 08:00N 60°10' E 027°44'713.7
2018-Apr-23 07:30N 60°06' E 027°32'713.8
2018-Apr-23 07:00N 60°03' E 027°21'713.7
2018-Apr-23 06:30N 59°59' E 027°09'612.8
2018-Apr-23 06:00N 59°58' E 026°56'713.5
2018-Apr-23 05:30N 59°59' E 026°43'713.4
2018-Apr-23 05:00N 59°58' E 026°30'713.9
2018-Apr-23 04:30N 59°56' E 026°16'2213.8
2018-Apr-23 02:55N 59°51' E 025°34'813.5
2018-Apr-23 02:22N 59°50' E 025°19'513.4
2018-Apr-23 02:01N 59°48' E 025°10'713.4
2018-Apr-23 01:30N 59°47' E 024°57'713.3
2018-Apr-23 01:01N 59°45' E 024°44'713.2
2018-Apr-23 00:30N 59°44' E 024°32'713.1
2018-Apr-23 00:00N 59°42' E 024°19'713.3
2018-Apr-22 23:31N 59°40' E 024°07'713.4
2018-Apr-22 23:00N 59°38' E 023°54'713.7
2018-Apr-22 22:30N 59°36' E 023°41'713.6
2018-Apr-22 22:00N 59°33' E 023°28'713.2
2018-Apr-22 21:30N 59°31' E 023°16'713.3
2018-Apr-22 21:00N 59°29' E 023°04'25113.1
2018-Apr-22 01:51N 56°27' E 017°39'513.4
2018-Apr-22 01:30N 56°24' E 017°32'713.6
2018-Apr-22 01:00N 56°20' E 017°23'1113.6
2018-Apr-22 00:12N 56°13' E 017°08'313.3
2018-Apr-22 00:00N 56°11' E 017°04'813.4
2018-Apr-21 23:26N 56°07' E 016°52'613.5
2018-Apr-21 23:00N 56°03' E 016°44'713.6
2018-Apr-21 22:30N 55°60' E 016°34'713.7
2018-Apr-21 22:00N 55°56' E 016°23'713.6
2018-Apr-21 21:30N 55°53' E 016°12'713.7
2018-Apr-21 21:00N 55°50' E 016°01'713.5
2018-Apr-21 20:30N 55°47' E 015°50'713.8
2018-Apr-21 20:00N 55°44' E 015°39'713.6
2018-Apr-21 19:31N 55°41' E 015°29'713.6
2018-Apr-21 19:00N 55°38' E 015°18'713.7
2018-Apr-21 18:30N 55°35' E 015°07'713.6
2018-Apr-21 18:00N 55°32' E 014°57'713.3
2018-Apr-21 17:30N 55°29' E 014°46'713.5
2018-Apr-21 17:00N 55°23' E 014°39'713.7
2018-Apr-21 16:30N 55°18' E 014°31'713.6
2018-Apr-21 16:00N 55°13' E 014°24'712.9
2018-Apr-21 15:30N 55°10' E 014°13'3813.8
2018-Apr-21 12:45N 55°13' E 013°07'313.7
2018-Apr-21 12:30N 55°14' E 013°01'713.6
2018-Apr-21 11:59N 55°15' E 012°49'713.6
2018-Apr-21 11:30N 55°18' E 012°39'713.4
2018-Apr-21 11:00N 55°25' E 012°39'713.0
2018-Apr-21 10:30N 55°31' E 012°44'713.9
2018-Apr-21 10:00N 55°36' E 012°52'611.0
2018-Apr-21 09:30N 55°41' E 012°54'714.5
2018-Apr-21 09:00N 55°48' E 012°47'714.2
2018-Apr-21 08:30N 55°53' E 012°40'613.0
2018-Apr-21 08:00N 55°60' E 012°40'815.5
2018-Apr-21 07:30N 56°06' E 012°32'4613.6
2018-Apr-21 04:09N 56°46' E 011°52'214.5
2018-Apr-21 04:00N 56°48' E 011°51'714.3
2018-Apr-21 03:30N 56°55' E 011°47'714.1
2018-Apr-21 02:58N 57°02' E 011°42'613.7
2018-Apr-21 02:30N 57°08' E 011°38'713.7
2018-Apr-21 02:00N 57°14' E 011°33'714.1
2018-Apr-21 01:30N 57°21' E 011°29'714.2
2018-Apr-21 01:00N 57°27' E 011°25'713.8
2018-Apr-21 00:30N 57°32' E 011°16'714.1
2018-Apr-21 00:01N 57°37' E 011°06'714.1
2018-Apr-20 23:30N 57°42' E 010°56'714.4
2018-Apr-20 23:00N 57°47' E 010°47'612.5
2018-Apr-20 22:30N 57°48' E 010°35'713.5
2018-Apr-20 22:00N 57°45' E 010°24'714.1
2018-Apr-20 21:30N 57°43' E 010°12'714.7
2018-Apr-20 21:00N 57°40' E 009°59'714.8
2018-Apr-20 20:31N 57°36' E 009°47'714.6
2018-Apr-20 20:00N 57°33' E 009°35'714.4
2018-Apr-20 19:30N 57°29' E 009°23'714.4
2018-Apr-20 19:00N 57°25' E 009°12'11513.1
2018-Apr-20 10:15N 55°46' E 007°26'613.9
2018-Apr-20 09:49N 55°41' E 007°22'514.2
2018-Apr-20 09:30N 55°37' E 007°20'714.1
2018-Apr-20 09:00N 55°30' E 007°20'714.0
2018-Apr-20 08:30N 55°22' E 007°21'714.0
2018-Apr-20 08:00N 55°16' E 007°21'714.1
2018-Apr-20 07:31N 55°09' E 007°22'714.2
2018-Apr-20 07:00N 55°02' E 007°23'714.1
2018-Apr-20 06:30N 54°54' E 007°23'714.3
2018-Apr-20 06:00N 54°47' E 007°24'714.5
2018-Apr-20 05:29N 54°40' E 007°25'714.4
2018-Apr-20 05:00N 54°33' E 007°25'714.4
2018-Apr-20 04:30N 54°26' E 007°26'714.4
2018-Apr-20 04:00N 54°18' E 007°26'714.0
2018-Apr-20 03:29N 54°11' E 007°29'714.0
2018-Apr-20 03:00N 54°05' E 007°34'612.0
2018-Apr-20 02:30N 54°02' E 007°43'713.2
2018-Apr-20 01:57N 54°01' E 007°55'612.8
2018-Apr-20 01:30N 54°01' E 008°05'611.8
2018-Apr-20 01:00N 54°00' E 008°15'611.7
2018-Apr-20 00:30N 53°59' E 008°25'511.0
2018-Apr-20 00:00N 53°58' E 008°34'510.1
2018-Apr-19 23:30N 53°55' E 008°41'611.7
2018-Apr-19 23:00N 53°51' E 008°47'714.5
2018-Apr-19 22:30N 53°51' E 008°59'713.5
2018-Apr-19 22:00N 53°53' E 009°10'0 1.0
2018-Apr-19 21:30N 53°53' E 009°11'0 0.0
2018-Apr-19 21:00N 53°53' E 009°11'0 0.0
2018-Apr-19 20:30N 53°53' E 009°11'0 0.0
2018-Apr-19 20:00N 53°53' E 009°11'0 0.0
2018-Apr-19 19:30N 53°53' E 009°11'0 0.0
2018-Apr-19 19:00N 53°53' E 009°11'0 0.0
2018-Apr-19 18:30N 53°53' E 009°11'0 0.0
2018-Apr-19 18:00N 53°53' E 009°11'0 0.0
2018-Apr-19 17:30N 53°53' E 009°11'0 0.0
2018-Apr-19 17:00N 53°53' E 009°11'0 0.0
2018-Apr-19 16:30N 53°53' E 009°11'0 0.0
2018-Apr-19 16:00N 53°53' E 009°11'0 0.0
2018-Apr-19 15:30N 53°53' E 009°11'0 0.0
2018-Apr-19 15:01N 53°53' E 009°11'0 0.0
2018-Apr-19 14:30N 53°53' E 009°11'0 0.0
2018-Apr-19 14:00N 53°53' E 009°11'0 0.0
2018-Apr-19 13:30N 53°53' E 009°11'0 0.0
2018-Apr-19 13:00N 53°53' E 009°11'0 0.0
2018-Apr-19 12:30N 53°53' E 009°11'0 0.0
2018-Apr-19 12:00N 53°53' E 009°11'0 0.0
2018-Apr-19 11:30N 53°53' E 009°11'0 0.0
2018-Apr-19 11:00N 53°53' E 009°11'0 0.0
2018-Apr-19 10:30N 53°53' E 009°11'0 0.0
2018-Apr-19 10:00N 53°53' E 009°11'0 0.0
2018-Apr-19 09:29N 53°53' E 009°11'0 0.0
2018-Apr-19 09:00N 53°53' E 009°11'0 0.0
2018-Apr-19 08:30N 53°53' E 009°11'0 0.0
2018-Apr-19 08:00N 53°53' E 009°11'0 0.0
2018-Apr-19 07:30N 53°53' E 009°11'0 0.0
2018-Apr-19 07:00N 53°53' E 009°11'0 0.0
2018-Apr-19 06:30N 53°53' E 009°11'0 0.0
2018-Apr-19 06:00N 53°53' E 009°11'0 0.0
2018-Apr-19 05:30N 53°53' E 009°11'0 0.0
2018-Apr-19 05:00N 53°53' E 009°11'0 0.0
2018-Apr-19 04:30N 53°53' E 009°11'0 0.0
2018-Apr-19 04:00N 53°53' E 009°11'0 0.0
2018-Apr-19 03:30N 53°53' E 009°11'0 0.0
2018-Apr-19 03:00N 53°53' E 009°11'0 0.0
2018-Apr-19 02:30N 53°53' E 009°11'0 0.0
2018-Apr-19 02:00N 53°53' E 009°11'0 0.0
2018-Apr-19 01:30N 53°53' E 009°11'0 0.0
2018-Apr-19 01:00N 53°53' E 009°11'0 0.0
2018-Apr-19 00:30N 53°53' E 009°11'0 0.0
2018-Apr-19 00:00N 53°53' E 009°11'0 0.0
2018-Apr-18 23:30N 53°53' E 009°11'0 0.0
2018-Apr-18 23:00N 53°53' E 009°11'0 0.0
2018-Apr-18 22:30N 53°53' E 009°11'0 0.0
2018-Apr-18 22:00N 53°53' E 009°11'0 0.0
2018-Apr-18 21:30N 53°53' E 009°11'0 0.0
2018-Apr-18 21:01N 53°53' E 009°11'0 0.0
2018-Apr-18 20:30N 53°53' E 009°11'0 0.0
2018-Apr-18 20:00N 53°53' E 009°11'0 0.0
2018-Apr-18 19:30N 53°53' E 009°11'0 0.0
2018-Apr-18 19:00N 53°53' E 009°11'0 0.0
2018-Apr-18 18:30N 53°53' E 009°11'0 0.0
2018-Apr-18 18:00N 53°53' E 009°11'0 0.0
2018-Apr-18 17:30N 53°53' E 009°11'0 0.0
2018-Apr-18 17:00N 53°53' E 009°11'0 0.0
2018-Apr-18 16:31N 53°53' E 009°11'0 0.0
2018-Apr-18 16:00N 53°53' E 009°11'0 0.0
2018-Apr-18 15:30N 53°53' E 009°11'0 0.0
2018-Apr-18 14:59N 53°53' E 009°11'0 0.0
2018-Apr-18 14:30N 53°53' E 009°11'0 0.0
2018-Apr-18 14:00N 53°53' E 009°11'0 0.0
2018-Apr-18 13:30N 53°53' E 009°11'0 0.0
2018-Apr-18 13:00N 53°53' E 009°11'0 0.0
2018-Apr-18 12:30N 53°53' E 009°11'0 0.0
2018-Apr-18 12:00N 53°53' E 009°11'0 0.0
2018-Apr-18 11:31N 53°53' E 009°11'0 0.0
2018-Apr-18 11:00N 53°53' E 009°11'0 0.0
2018-Apr-18 10:30N 53°53' E 009°11'0 0.0
2018-Apr-18 10:00N 53°53' E 009°11'0 0.0
2018-Apr-18 09:30N 53°53' E 009°11'0 0.0
2018-Apr-18 09:00N 53°53' E 009°11'0 0.0
2018-Apr-18 08:30N 53°53' E 009°11'0 0.0
2018-Apr-18 08:00N 53°53' E 009°11'0 0.0
2018-Apr-18 07:30N 53°53' E 009°11'0 0.0
2018-Apr-18 07:00N 53°53' E 009°11'0 0.0
2018-Apr-18 06:30N 53°53' E 009°11'0 0.0
2018-Apr-18 05:59N 53°53' E 009°11'0 0.0
2018-Apr-18 05:30N 53°53' E 009°11'0 0.0
2018-Apr-18 05:00N 53°53' E 009°11'0 0.0
2018-Apr-18 04:30N 53°53' E 009°11'0 0.0
2018-Apr-18 04:00N 53°53' E 009°11'0 0.0
2018-Apr-18 03:30N 53°53' E 009°11'0 0.0
2018-Apr-18 03:00N 53°53' E 009°11'0 0.0
2018-Apr-18 02:30N 53°53' E 009°11'0 0.0
2018-Apr-18 02:00N 53°53' E 009°11'0 0.0
2018-Apr-18 01:30N 53°53' E 009°11'0 0.0
2018-Apr-18 01:00N 53°53' E 009°11'0 0.0
2018-Apr-18 00:30N 53°53' E 009°11'0 0.0
2018-Apr-18 00:00N 53°53' E 009°11'0 0.0
2018-Apr-17 23:30N 53°53' E 009°11'0 0.0
2018-Apr-17 23:00N 53°53' E 009°11'0 0.0
2018-Apr-17 22:30N 53°53' E 009°11'0 0.0
2018-Apr-17 22:00N 53°53' E 009°11'0 0.0
2018-Apr-17 21:30N 53°53' E 009°11'0 0.0
2018-Apr-17 20:59N 53°53' E 009°11'0 0.0
2018-Apr-17 20:30N 53°53' E 009°11'0 0.0
2018-Apr-17 20:00N 53°53' E 009°11'0 0.0
2018-Apr-17 19:30N 53°53' E 009°11'0 0.0
2018-Apr-17 19:00N 53°53' E 009°11'0 0.0
2018-Apr-17 18:30N 53°53' E 009°11'0 0.0
2018-Apr-17 18:00N 53°53' E 009°11'0 0.0
2018-Apr-17 17:30N 53°53' E 009°11'0 0.0
2018-Apr-17 17:00N 53°53' E 009°11'0 0.0
2018-Apr-17 16:30N 53°53' E 009°11'0 0.0
2018-Apr-17 16:00N 53°53' E 009°11'0 0.0
2018-Apr-17 15:30N 53°53' E 009°11'0 0.0
2018-Apr-17 15:00N 53°53' E 009°11'0 0.0
2018-Apr-17 14:30N 53°53' E 009°11'0 0.0
2018-Apr-17 14:01N 53°53' E 009°11'0 0.0
2018-Apr-17 13:30N 53°53' E 009°11'0 0.0
2018-Apr-17 13:00N 53°53' E 009°11'0 0.0
2018-Apr-17 12:30N 53°53' E 009°11'0 0.0
2018-Apr-17 12:01N 53°53' E 009°11'0 0.0
2018-Apr-17 11:30N 53°53' E 009°11'0 0.0
2018-Apr-17 11:00N 53°53' E 009°11'0 0.0
2018-Apr-17 10:31N 53°53' E 009°11'0 0.0
2018-Apr-17 10:00N 53°53' E 009°11'0 0.0
2018-Apr-17 09:30N 53°53' E 009°11'0 0.0
2018-Apr-17 09:01N 53°53' E 009°11'0 0.0
2018-Apr-17 08:30N 53°53' E 009°11'0 0.0
2018-Apr-17 08:01N 53°53' E 009°11'0 0.0
2018-Apr-17 07:30N 53°53' E 009°11'0 0.0
2018-Apr-17 07:00N 53°53' E 009°11'0 0.0
2018-Apr-17 06:30N 53°53' E 009°11'0 0.0
2018-Apr-17 06:00N 53°53' E 009°11'0 0.0
2018-Apr-17 05:30N 53°53' E 009°11'0 0.0
2018-Apr-17 05:00N 53°53' E 009°11'0 0.0
2018-Apr-17 04:30N 53°53' E 009°11'0 0.0
2018-Apr-17 04:00N 53°53' E 009°11'0 0.0
2018-Apr-17 03:29N 53°53' E 009°11'0 0.0
2018-Apr-17 03:00N 53°53' E 009°11'0 0.0
2018-Apr-17 02:30N 53°53' E 009°11'0 0.0
2018-Apr-17 02:00N 53°53' E 009°11'0 0.0
2018-Apr-17 01:30N 53°53' E 009°11'0 0.0
2018-Apr-17 01:00N 53°53' E 009°11'0 0.0
2018-Apr-17 00:30N 53°53' E 009°11'0 0.0
2018-Apr-17 00:00N 53°53' E 009°11'0 0.0
2018-Apr-16 23:30N 53°53' E 009°11'0 0.0
2018-Apr-16 23:00N 53°53' E 009°11'0 0.0
2018-Apr-16 22:30N 53°53' E 009°11'0 0.0
2018-Apr-16 22:00N 53°53' E 009°11'0 0.0
2018-Apr-16 21:30N 53°53' E 009°11'0 0.0
2018-Apr-16 21:00N 53°53' E 009°11'0 0.0
2018-Apr-16 20:29N 53°53' E 009°11'0 0.0
2018-Apr-16 20:00N 53°53' E 009°11'0 0.0
2018-Apr-16 19:31N 53°53' E 009°11'0 0.0
2018-Apr-16 18:58N 53°53' E 009°11'0 0.0
2018-Apr-16 18:30N 53°53' E 009°11'0 0.0
2018-Apr-16 18:00N 53°53' E 009°11'0 0.0
2018-Apr-16 17:30N 53°53' E 009°11'0 0.0
2018-Apr-16 17:00N 53°53' E 009°11'0 0.0
2018-Apr-16 16:30N 53°53' E 009°11'0 0.0
2018-Apr-16 15:59N 53°53' E 009°11'0 0.0
2018-Apr-16 15:30N 53°53' E 009°11'0 0.0
2018-Apr-16 15:00N 53°53' E 009°11'0 0.0
2018-Apr-16 14:30N 53°53' E 009°11'0 0.0
2018-Apr-16 14:00N 53°53' E 009°11'0 0.0
2018-Apr-16 13:29N 53°53' E 009°11'0 0.0
2018-Apr-16 13:00N 53°53' E 009°11'0 0.0
2018-Apr-16 12:30N 53°53' E 009°11'0 0.0
2018-Apr-16 12:00N 53°53' E 009°11'0 0.0
2018-Apr-16 11:30N 53°53' E 009°11'0 0.3
2018-Apr-16 11:00N 53°53' E 009°11'0 0.9
2018-Apr-16 10:30N 53°53' E 009°12'1 2.3
2018-Apr-16 10:00N 53°53' E 009°10'2 3.6
2018-Apr-16 09:30N 53°53' E 009°07'4 7.3
2018-Apr-16 09:00N 53°51' E 009°01'510.7
2018-Apr-16 08:30N 53°50' E 008°52'5 9.3
2018-Apr-16 08:00N 53°52' E 008°45'5 9.6
2018-Apr-16 07:30N 53°56' E 008°40'5 9.8
2018-Apr-16 07:00N 53°58' E 008°33'510.3
2018-Apr-16 06:29N 53°59' E 008°24'5 9.3
2018-Apr-16 06:00N 53°60' E 008°16'4 7.9
2018-Apr-16 05:30N 53°60' E 008°10'4 8.3
2018-Apr-16 05:00N 53°59' E 008°03'611.5
2018-Apr-16 04:30N 53°57' E 007°53'611.0
2018-Apr-16 04:00N 53°56' E 007°44'510.7
2018-Apr-16 03:30N 53°55' E 007°35'710.5
2018-Apr-16 02:48N 53°53' E 007°23'30 9.1
2018-Apr-15 23:27N 53°47' E 006°32'4 9.7
2018-Apr-15 23:00N 53°46' E 006°25'6 9.9
2018-Apr-15 22:25N 53°44' E 006°16'2910.6
2018-Apr-15 19:43N 53°34' E 005°30'211.0
2018-Apr-15 19:30N 53°34' E 005°27'611.0
2018-Apr-15 19:00N 53°32' E 005°18'611.2
2018-Apr-15 18:30N 53°30' E 005°09'611.3
2018-Apr-15 18:00N 53°28' E 005°00'611.8
2018-Apr-15 17:30N 53°26' E 004°51'611.6
2018-Apr-15 17:00N 53°23' E 004°43'612.4
2018-Apr-15 16:29N 53°17' E 004°37'612.4
2018-Apr-15 16:00N 53°12' E 004°32'612.3
2018-Apr-15 15:30N 53°07' E 004°27'611.8
2018-Apr-15 15:00N 53°02' E 004°22'611.6
2018-Apr-15 14:30N 52°57' E 004°18'611.5
2018-Apr-15 14:00N 52°51' E 004°14'611.3
2018-Apr-15 13:30N 52°47' E 004°09'610.6
2018-Apr-15 12:58N 52°42' E 004°03'510.4
2018-Apr-15 12:27N 52°38' E 003°57'510.0
2018-Apr-15 11:57N 52°35' E 003°51'4 9.6
2018-Apr-15 11:30N 52°32' E 003°46'5 9.5
2018-Apr-15 11:00N 52°28' E 003°41'5 9.2
2018-Apr-15 10:30N 52°25' E 003°36'5 9.0
2018-Apr-15 10:00N 52°22' E 003°31'5 8.8
2018-Apr-15 09:23N 52°18' E 003°24'3 8.5
2018-Apr-15 09:00N 52°16' E 003°20'33 8.8
2018-Apr-15 05:14N 51°51' E 002°43'310.1
2018-Apr-15 04:56N 51°49' E 002°40'510.3
2018-Apr-15 04:29N 51°45' E 002°36'510.5
2018-Apr-15 04:00N 51°41' E 002°31'  
Track history (hours):
 
Tides and Currents Weather Stations Pressure Air Temp Water Temp Dewpoint Dewpoint Depression Visibility Wind Speed Wind Dir Waves Ship Positions

Zeynep

Last reported at 2018-Apr-25 03:56 UTC. Time now 2018-Apr-25 06:59 UTC.
Position N 60°02' E 029°25'.

Length 177 m; draft 6 m.

Type: Cargo ship. MMSI: 352854000.

Date/timePositionNaut miles runAvg speedWind from/ knotsBaromVisibWave heightAir tempDewpointWater temp
2018-Apr-25 03:56N 60°02' E 029°25'0 0.1
2018-Apr-25 03:23N 60°02' E 029°25'0 0.0
2018-Apr-25 01:56N 60°02' E 029°25'0 0.0
2018-Apr-25 01:28N 60°02' E 029°25'0 0.0
2018-Apr-24 23:11N 60°02' E 029°25'0 0.1
2018-Apr-24 22:47N 60°02' E 029°25'0 0.1
2018-Apr-24 22:28N 60°02' E 029°25'0 0.0
2018-Apr-24 21:59N 60°02' E 029°25'0 0.0
2018-Apr-24 20:46N 60°02' E 029°25'0 0.0
2018-Apr-24 01:53N 60°02' E 029°25'0 0.0
2018-Apr-24 01:23N 60°02' E 029°25'0 0.0
2018-Apr-23 19:28N 60°02' E 029°25'0 0.0
2018-Apr-23 14:59N 60°02' E 029°25'0 0.0
2018-Apr-23 12:38N 60°02' E 029°25'0 0.6
2018-Apr-23 12:26N 60°02' E 029°24'3 6.7
2018-Apr-23 11:58N 60°02' E 029°18'511.1
2018-Apr-23 11:30N 60°02' E 029°08'612.6
2018-Apr-23 11:00N 60°02' E 028°56'612.3
2018-Apr-23 10:30N 60°02' E 028°43'612.2
2018-Apr-23 10:00N 60°02' E 028°31'611.8
2018-Apr-23 09:30N 60°05' E 028°21'612.3
2018-Apr-23 09:00N 60°08' E 028°10'713.2
2018-Apr-23 08:30N 60°09' E 027°56'612.2
2018-Apr-23 08:00N 60°10' E 027°44'713.7
2018-Apr-23 07:30N 60°06' E 027°32'713.8
2018-Apr-23 07:00N 60°03' E 027°21'713.7
2018-Apr-23 06:30N 59°59' E 027°09'612.8
2018-Apr-23 06:00N 59°58' E 026°56'713.5
2018-Apr-23 05:30N 59°59' E 026°43'713.4
2018-Apr-23 05:00N 59°58' E 026°30'713.9
2018-Apr-23 04:30N 59°56' E 026°16'2213.8
2018-Apr-23 02:55N 59°51' E 025°34'813.5
2018-Apr-23 02:22N 59°50' E 025°19'513.4
2018-Apr-23 02:01N 59°48' E 025°10'713.4
2018-Apr-23 01:30N 59°47' E 024°57'713.3
2018-Apr-23 01:01N 59°45' E 024°44'713.2
2018-Apr-23 00:30N 59°44' E 024°32'713.1
2018-Apr-23 00:00N 59°42' E 024°19'713.3
2018-Apr-22 23:31N 59°40' E 024°07'713.4
2018-Apr-22 23:00N 59°38' E 023°54'713.7
2018-Apr-22 22:30N 59°36' E 023°41'713.6
2018-Apr-22 22:00N 59°33' E 023°28'713.2
2018-Apr-22 21:30N 59°31' E 023°16'713.3
2018-Apr-22 21:00N 59°29' E 023°04'25113.1
2018-Apr-22 01:51N 56°27' E 017°39'513.4
2018-Apr-22 01:30N 56°24' E 017°32'713.6
2018-Apr-22 01:00N 56°20' E 017°23'1113.6
2018-Apr-22 00:12N 56°13' E 017°08'313.3
2018-Apr-22 00:00N 56°11' E 017°04'813.4
2018-Apr-21 23:26N 56°07' E 016°52'613.5
2018-Apr-21 23:00N 56°03' E 016°44'713.6
2018-Apr-21 22:30N 55°60' E 016°34'713.7
2018-Apr-21 22:00N 55°56' E 016°23'713.6
2018-Apr-21 21:30N 55°53' E 016°12'713.7
2018-Apr-21 21:00N 55°50' E 016°01'713.5
2018-Apr-21 20:30N 55°47' E 015°50'713.8
2018-Apr-21 20:00N 55°44' E 015°39'713.6
2018-Apr-21 19:31N 55°41' E 015°29'713.6
2018-Apr-21 19:00N 55°38' E 015°18'713.7
2018-Apr-21 18:30N 55°35' E 015°07'713.6
2018-Apr-21 18:00N 55°32' E 014°57'713.3
2018-Apr-21 17:30N 55°29' E 014°46'713.5
2018-Apr-21 17:00N 55°23' E 014°39'713.7
2018-Apr-21 16:30N 55°18' E 014°31'713.6
2018-Apr-21 16:00N 55°13' E 014°24'712.9
2018-Apr-21 15:30N 55°10' E 014°13'3813.8
2018-Apr-21 12:45N 55°13' E 013°07'313.7
2018-Apr-21 12:30N 55°14' E 013°01'713.6
2018-Apr-21 11:59N 55°15' E 012°49'713.6
2018-Apr-21 11:30N 55°18' E 012°39'713.4
2018-Apr-21 11:00N 55°25' E 012°39'713.0
2018-Apr-21 10:30N 55°31' E 012°44'713.9
2018-Apr-21 10:00N 55°36' E 012°52'611.0
2018-Apr-21 09:30N 55°41' E 012°54'714.5
2018-Apr-21 09:00N 55°48' E 012°47'714.2
2018-Apr-21 08:30N 55°53' E 012°40'613.0
2018-Apr-21 08:00N 55°60' E 012°40'815.5
2018-Apr-21 07:30N 56°06' E 012°32'4613.6
2018-Apr-21 04:09N 56°46' E 011°52'214.5
2018-Apr-21 04:00N 56°48' E 011°51'714.3
2018-Apr-21 03:30N 56°55' E 011°47'714.1
2018-Apr-21 02:58N 57°02' E 011°42'613.7
2018-Apr-21 02:30N 57°08' E 011°38'713.7
2018-Apr-21 02:00N 57°14' E 011°33'714.1
2018-Apr-21 01:30N 57°21' E 011°29'714.2
2018-Apr-21 01:00N 57°27' E 011°25'713.8
2018-Apr-21 00:30N 57°32' E 011°16'714.1
2018-Apr-21 00:01N 57°37' E 011°06'714.1
2018-Apr-20 23:30N 57°42' E 010°56'714.4
2018-Apr-20 23:00N 57°47' E 010°47'612.5
2018-Apr-20 22:30N 57°48' E 010°35'713.5
2018-Apr-20 22:00N 57°45' E 010°24'714.1
2018-Apr-20 21:30N 57°43' E 010°12'714.7
2018-Apr-20 21:00N 57°40' E 009°59'714.8
2018-Apr-20 20:31N 57°36' E 009°47'714.6
2018-Apr-20 20:00N 57°33' E 009°35'714.4
2018-Apr-20 19:30N 57°29' E 009°23'714.4
2018-Apr-20 19:00N 57°25' E 009°12'11513.1
2018-Apr-20 10:15N 55°46' E 007°26'613.9
2018-Apr-20 09:49N 55°41' E 007°22'514.2
2018-Apr-20 09:30N 55°37' E 007°20'714.1
2018-Apr-20 09:00N 55°30' E 007°20'714.0
2018-Apr-20 08:30N 55°22' E 007°21'714.0
2018-Apr-20 08:00N 55°16' E 007°21'714.1
2018-Apr-20 07:31N 55°09' E 007°22'714.2
2018-Apr-20 07:00N 55°02' E 007°23'714.1
2018-Apr-20 06:30N 54°54' E 007°23'714.3
2018-Apr-20 06:00N 54°47' E 007°24'714.5
2018-Apr-20 05:29N 54°40' E 007°25'714.4
2018-Apr-20 05:00N 54°33' E 007°25'714.4
2018-Apr-20 04:30N 54°26' E 007°26'714.4
2018-Apr-20 04:00N 54°18' E 007°26'714.0
2018-Apr-20 03:29N 54°11' E 007°29'714.0
2018-Apr-20 03:00N 54°05' E 007°34'612.0
2018-Apr-20 02:30N 54°02' E 007°43'713.2
2018-Apr-20 01:57N 54°01' E 007°55'612.8
2018-Apr-20 01:30N 54°01' E 008°05'611.8
2018-Apr-20 01:00N 54°00' E 008°15'611.7
2018-Apr-20 00:30N 53°59' E 008°25'511.0
2018-Apr-20 00:00N 53°58' E 008°34'510.1
2018-Apr-19 23:30N 53°55' E 008°41'611.7
2018-Apr-19 23:00N 53°51' E 008°47'714.5
2018-Apr-19 22:30N 53°51' E 008°59'713.5
2018-Apr-19 22:00N 53°53' E 009°10'0 1.0
2018-Apr-19 21:30N 53°53' E 009°11'0 0.0
2018-Apr-19 21:00N 53°53' E 009°11'0 0.0
2018-Apr-19 20:30N 53°53' E 009°11'0 0.0
2018-Apr-19 20:00N 53°53' E 009°11'0 0.0
2018-Apr-19 19:30N 53°53' E 009°11'0 0.0
2018-Apr-19 19:00N 53°53' E 009°11'0 0.0
2018-Apr-19 18:30N 53°53' E 009°11'0 0.0
2018-Apr-19 18:00N 53°53' E 009°11'0 0.0
2018-Apr-19 17:30N 53°53' E 009°11'0 0.0
2018-Apr-19 17:00N 53°53' E 009°11'0 0.0
2018-Apr-19 16:30N 53°53' E 009°11'0 0.0
2018-Apr-19 16:00N 53°53' E 009°11'0 0.0
2018-Apr-19 15:30N 53°53' E 009°11'0 0.0
2018-Apr-19 15:01N 53°53' E 009°11'0 0.0
2018-Apr-19 14:30N 53°53' E 009°11'0 0.0
2018-Apr-19 14:00N 53°53' E 009°11'0 0.0
2018-Apr-19 13:30N 53°53' E 009°11'0 0.0
2018-Apr-19 13:00N 53°53' E 009°11'0 0.0
2018-Apr-19 12:30N 53°53' E 009°11'0 0.0
2018-Apr-19 12:00N 53°53' E 009°11'0 0.0
2018-Apr-19 11:30N 53°53' E 009°11'0 0.0
2018-Apr-19 11:00N 53°53' E 009°11'0 0.0
2018-Apr-19 10:30N 53°53' E 009°11'0 0.0
2018-Apr-19 10:00N 53°53' E 009°11'0 0.0
2018-Apr-19 09:29N 53°53' E 009°11'0 0.0
2018-Apr-19 09:00N 53°53' E 009°11'0 0.0
2018-Apr-19 08:30N 53°53' E 009°11'0 0.0
2018-Apr-19 08:00N 53°53' E 009°11'0 0.0
2018-Apr-19 07:30N 53°53' E 009°11'0 0.0
2018-Apr-19 07:00N 53°53' E 009°11'0 0.0
2018-Apr-19 06:30N 53°53' E 009°11'0 0.0
2018-Apr-19 06:00N 53°53' E 009°11'0 0.0
2018-Apr-19 05:30N 53°53' E 009°11'0 0.0
2018-Apr-19 05:00N 53°53' E 009°11'0 0.0
2018-Apr-19 04:30N 53°53' E 009°11'0 0.0
2018-Apr-19 04:00N 53°53' E 009°11'0 0.0
2018-Apr-19 03:30N 53°53' E 009°11'0 0.0
2018-Apr-19 03:00N 53°53' E 009°11'0 0.0
2018-Apr-19 02:30N 53°53' E 009°11'0 0.0
2018-Apr-19 02:00N 53°53' E 009°11'0 0.0
2018-Apr-19 01:30N 53°53' E 009°11'0 0.0
2018-Apr-19 01:00N 53°53' E 009°11'0 0.0
2018-Apr-19 00:30N 53°53' E 009°11'0 0.0
2018-Apr-19 00:00N 53°53' E 009°11'0 0.0
2018-Apr-18 23:30N 53°53' E 009°11'0 0.0
2018-Apr-18 23:00N 53°53' E 009°11'0 0.0
2018-Apr-18 22:30N 53°53' E 009°11'0 0.0
2018-Apr-18 22:00N 53°53' E 009°11'0 0.0
2018-Apr-18 21:30N 53°53' E 009°11'0 0.0
2018-Apr-18 21:01N 53°53' E 009°11'0 0.0
2018-Apr-18 20:30N 53°53' E 009°11'0 0.0
2018-Apr-18 20:00N 53°53' E 009°11'0 0.0
2018-Apr-18 19:30N 53°53' E 009°11'0 0.0
2018-Apr-18 19:00N 53°53' E 009°11'0 0.0
2018-Apr-18 18:30N 53°53' E 009°11'0 0.0
2018-Apr-18 18:00N 53°53' E 009°11'0 0.0
2018-Apr-18 17:30N 53°53' E 009°11'0 0.0
2018-Apr-18 17:00N 53°53' E 009°11'0 0.0
2018-Apr-18 16:31N 53°53' E 009°11'0 0.0
2018-Apr-18 16:00N 53°53' E 009°11'0 0.0
2018-Apr-18 15:30N 53°53' E 009°11'0 0.0
2018-Apr-18 14:59N 53°53' E 009°11'0 0.0
2018-Apr-18 14:30N 53°53' E 009°11'0 0.0
2018-Apr-18 14:00N 53°53' E 009°11'0 0.0
2018-Apr-18 13:30N 53°53' E 009°11'0 0.0
2018-Apr-18 13:00N 53°53' E 009°11'0 0.0
2018-Apr-18 12:30N 53°53' E 009°11'0 0.0
2018-Apr-18 12:00N 53°53' E 009°11'0 0.0
2018-Apr-18 11:31N 53°53' E 009°11'0 0.0
2018-Apr-18 11:00N 53°53' E 009°11'0 0.0
2018-Apr-18 10:30N 53°53' E 009°11'0 0.0
2018-Apr-18 10:00N 53°53' E 009°11'0 0.0
2018-Apr-18 09:30N 53°53' E 009°11'0 0.0
2018-Apr-18 09:00N 53°53' E 009°11'0 0.0
2018-Apr-18 08:30N 53°53' E 009°11'0 0.0
2018-Apr-18 08:00N 53°53' E 009°11'0 0.0
2018-Apr-18 07:30N 53°53' E 009°11'0 0.0
2018-Apr-18 07:00N 53°53' E 009°11'0 0.0
2018-Apr-18 06:30N 53°53' E 009°11'0 0.0
2018-Apr-18 05:59N 53°53' E 009°11'0 0.0
2018-Apr-18 05:30N 53°53' E 009°11'0 0.0
2018-Apr-18 05:00N 53°53' E 009°11'0 0.0
2018-Apr-18 04:30N 53°53' E 009°11'0 0.0
2018-Apr-18 04:00N 53°53' E 009°11'0 0.0
2018-Apr-18 03:30N 53°53' E 009°11'0 0.0
2018-Apr-18 03:00N 53°53' E 009°11'0 0.0
2018-Apr-18 02:30N 53°53' E 009°11'0 0.0
2018-Apr-18 02:00N 53°53' E 009°11'0 0.0
2018-Apr-18 01:30N 53°53' E 009°11'0 0.0
2018-Apr-18 01:00N 53°53' E 009°11'0 0.0
2018-Apr-18 00:30N 53°53' E 009°11'0 0.0
2018-Apr-18 00:00N 53°53' E 009°11'0 0.0
2018-Apr-17 23:30N 53°53' E 009°11'0 0.0
2018-Apr-17 23:00N 53°53' E 009°11'0 0.0
2018-Apr-17 22:30N 53°53' E 009°11'0 0.0
2018-Apr-17 22:00N 53°53' E 009°11'0 0.0
2018-Apr-17 21:30N 53°53' E 009°11'0 0.0
2018-Apr-17 20:59N 53°53' E 009°11'0 0.0
2018-Apr-17 20:30N 53°53' E 009°11'0 0.0
2018-Apr-17 20:00N 53°53' E 009°11'0 0.0
2018-Apr-17 19:30N 53°53' E 009°11'0 0.0
2018-Apr-17 19:00N 53°53' E 009°11'0 0.0
2018-Apr-17 18:30N 53°53' E 009°11'0 0.0
2018-Apr-17 18:00N 53°53' E 009°11'0 0.0
2018-Apr-17 17:30N 53°53' E 009°11'0 0.0
2018-Apr-17 17:00N 53°53' E 009°11'0 0.0
2018-Apr-17 16:30N 53°53' E 009°11'0 0.0
2018-Apr-17 16:00N 53°53' E 009°11'0 0.0
2018-Apr-17 15:30N 53°53' E 009°11'0 0.0
2018-Apr-17 15:00N 53°53' E 009°11'0 0.0
2018-Apr-17 14:30N 53°53' E 009°11'0 0.0
2018-Apr-17 14:01N 53°53' E 009°11'0 0.0
2018-Apr-17 13:30N 53°53' E 009°11'0 0.0
2018-Apr-17 13:00N 53°53' E 009°11'0 0.0
2018-Apr-17 12:30N 53°53' E 009°11'0 0.0
2018-Apr-17 12:01N 53°53' E 009°11'0 0.0
2018-Apr-17 11:30N 53°53' E 009°11'0 0.0
2018-Apr-17 11:00N 53°53' E 009°11'0 0.0
2018-Apr-17 10:31N 53°53' E 009°11'0 0.0
2018-Apr-17 10:00N 53°53' E 009°11'0 0.0
2018-Apr-17 09:30N 53°53' E 009°11'0 0.0
2018-Apr-17 09:01N 53°53' E 009°11'0 0.0
2018-Apr-17 08:30N 53°53' E 009°11'0 0.0
2018-Apr-17 08:01N 53°53' E 009°11'0 0.0
2018-Apr-17 07:30N 53°53' E 009°11'0 0.0
2018-Apr-17 07:00N 53°53' E 009°11'0 0.0
2018-Apr-17 06:30N 53°53' E 009°11'0 0.0
2018-Apr-17 06:00N 53°53' E 009°11'0 0.0
2018-Apr-17 05:30N 53°53' E 009°11'0 0.0
2018-Apr-17 05:00N 53°53' E 009°11'0 0.0
2018-Apr-17 04:30N 53°53' E 009°11'0 0.0
2018-Apr-17 04:00N 53°53' E 009°11'0 0.0
2018-Apr-17 03:29N 53°53' E 009°11'0 0.0
2018-Apr-17 03:00N 53°53' E 009°11'0 0.0
2018-Apr-17 02:30N 53°53' E 009°11'0 0.0
2018-Apr-17 02:00N 53°53' E 009°11'0 0.0
2018-Apr-17 01:30N 53°53' E 009°11'0 0.0
2018-Apr-17 01:00N 53°53' E 009°11'0 0.0
2018-Apr-17 00:30N 53°53' E 009°11'0 0.0
2018-Apr-17 00:00N 53°53' E 009°11'0 0.0
2018-Apr-16 23:30N 53°53' E 009°11'0 0.0
2018-Apr-16 23:00N 53°53' E 009°11'0 0.0
2018-Apr-16 22:30N 53°53' E 009°11'0 0.0
2018-Apr-16 22:00N 53°53' E 009°11'0 0.0
2018-Apr-16 21:30N 53°53' E 009°11'0 0.0
2018-Apr-16 21:00N 53°53' E 009°11'0 0.0
2018-Apr-16 20:29N 53°53' E 009°11'0 0.0
2018-Apr-16 20:00N 53°53' E 009°11'0 0.0
2018-Apr-16 19:31N 53°53' E 009°11'0 0.0
2018-Apr-16 18:58N 53°53' E 009°11'0 0.0
2018-Apr-16 18:30N 53°53' E 009°11'0 0.0
2018-Apr-16 18:00N 53°53' E 009°11'0 0.0
2018-Apr-16 17:30N 53°53' E 009°11'0 0.0
2018-Apr-16 17:00N 53°53' E 009°11'0 0.0
2018-Apr-16 16:30N 53°53' E 009°11'0 0.0
2018-Apr-16 15:59N 53°53' E 009°11'0 0.0
2018-Apr-16 15:30N 53°53' E 009°11'0 0.0
2018-Apr-16 15:00N 53°53' E 009°11'0 0.0
2018-Apr-16 14:30N 53°53' E 009°11'0 0.0
2018-Apr-16 14:00N 53°53' E 009°11'0 0.0
2018-Apr-16 13:29N 53°53' E 009°11'0 0.0
2018-Apr-16 13:00N 53°53' E 009°11'0 0.0
2018-Apr-16 12:30N 53°53' E 009°11'0 0.0
2018-Apr-16 12:00N 53°53' E 009°11'0 0.0
2018-Apr-16 11:30N 53°53' E 009°11'0 0.3
2018-Apr-16 11:00N 53°53' E 009°11'0 0.9
2018-Apr-16 10:30N 53°53' E 009°12'1 2.3
2018-Apr-16 10:00N 53°53' E 009°10'2 3.6
2018-Apr-16 09:30N 53°53' E 009°07'4 7.3
2018-Apr-16 09:00N 53°51' E 009°01'510.7
2018-Apr-16 08:30N 53°50' E 008°52'5 9.3
2018-Apr-16 08:00N 53°52' E 008°45'5 9.6
2018-Apr-16 07:30N 53°56' E 008°40'5 9.8
2018-Apr-16 07:00N 53°58' E 008°33'510.3
2018-Apr-16 06:29N 53°59' E 008°24'5 9.3
2018-Apr-16 06:00N 53°60' E 008°16'4 7.9
2018-Apr-16 05:30N 53°60' E 008°10'4 8.3
2018-Apr-16 05:00N 53°59' E 008°03'611.5
2018-Apr-16 04:30N 53°57' E 007°53'611.0
2018-Apr-16 04:00N 53°56' E 007°44'510.7
2018-Apr-16 03:30N 53°55' E 007°35'710.5
2018-Apr-16 02:48N 53°53' E 007°23'30 9.1
2018-Apr-15 23:27N 53°47' E 006°32'4 9.7
2018-Apr-15 23:00N 53°46' E 006°25'6 9.9
2018-Apr-15 22:25N 53°44' E 006°16'2910.6
2018-Apr-15 19:43N 53°34' E 005°30'211.0
2018-Apr-15 19:30N 53°34' E 005°27'611.0
2018-Apr-15 19:00N 53°32' E 005°18'611.2
2018-Apr-15 18:30N 53°30' E 005°09'611.3
2018-Apr-15 18:00N 53°28' E 005°00'611.8
2018-Apr-15 17:30N 53°26' E 004°51'611.6
2018-Apr-15 17:00N 53°23' E 004°43'612.4
2018-Apr-15 16:29N 53°17' E 004°37'612.4
2018-Apr-15 16:00N 53°12' E 004°32'612.3
2018-Apr-15 15:30N 53°07' E 004°27'611.8
2018-Apr-15 15:00N 53°02' E 004°22'611.6
2018-Apr-15 14:30N 52°57' E 004°18'611.5
2018-Apr-15 14:00N 52°51' E 004°14'611.3
2018-Apr-15 13:30N 52°47' E 004°09'610.6
2018-Apr-15 12:58N 52°42' E 004°03'510.4
2018-Apr-15 12:27N 52°38' E 003°57'510.0
2018-Apr-15 11:57N 52°35' E 003°51'4 9.6
2018-Apr-15 11:30N 52°32' E 003°46'5 9.5
2018-Apr-15 11:00N 52°28' E 003°41'5 9.2
2018-Apr-15 10:30N 52°25' E 003°36'5 9.0
2018-Apr-15 10:00N 52°22' E 003°31'5 8.8
2018-Apr-15 09:23N 52°18' E 003°24'3 8.5
2018-Apr-15 09:00N 52°16' E 003°20'33 8.8
2018-Apr-15 05:14N 51°51' E 002°43'310.1
2018-Apr-15 04:56N 51°49' E 002°40'510.3
2018-Apr-15 04:29N 51°45' E 002°36'510.5
2018-Apr-15 04:00N 51°41' E 002°31'  

Dump ship's entire track history